Time;durP1;ratioP1;P1;durP2;ratioP2;P2;SDS_P1;SDS_P2;PMS_P1;PMS_P2;Temp;Humidity;BMP_temperature;BMP_pressure;BME280_temperature;BME280_humidity;BME280_pressure;Samples;Min_cycle;Max_cycle;Signal;HPM_P1;HPM_P2
2023/03/25 00:00:15;;;;;;;6.07;1.40;;;9.60;99.90;;;;;;5084031;28;20220;-58
2023/03/25 00:02:44;;;;;;;6.83;1.00;;;9.50;99.90;;;;;;5083142;28;20554;-58
2023/03/25 00:05:13;;;;;;;5.00;1.10;;;9.50;99.90;;;;;;5101531;28;20209;-58
2023/03/25 00:07:42;;;;;;;4.30;1.10;;;9.50;99.90;;;;;;5098616;28;20213;-59
2023/03/25 00:10:11;;;;;;;4.63;1.00;;;9.50;99.90;;;;;;5102702;28;20203;-58
2023/03/25 00:12:39;;;;;;;4.93;1.00;;;9.50;99.90;;;;;;5102060;28;20254;-59
2023/03/25 00:15:07;;;;;;;3.63;1.33;;;9.60;99.90;;;;;;5101378;28;20252;-59
2023/03/25 00:17:35;;;;;;;2.87;0.90;;;9.60;99.90;;;;;;5101145;28;20219;-58
2023/03/25 00:20:10;;;;;;;3.67;1.53;;;9.60;99.90;;;;;;5101232;28;20202;-58
2023/03/25 00:22:39;;;;;;;6.10;1.40;;;9.60;99.90;;;;;;5099079;28;20193;-58
2023/03/25 00:25:17;;;;;;;4.70;1.23;;;9.60;99.90;;;;;;5098632;28;20531;-58
2023/03/25 00:27:47;;;;;;;3.87;1.30;;;9.60;99.90;;;;;;5098829;28;20581;-58
2023/03/25 00:30:15;;;;;;;3.73;1.23;;;9.60;99.90;;;;;;5082550;28;20312;-59
2023/03/25 00:32:48;;;;;;;4.30;1.20;;;9.70;99.90;;;;;;5100473;28;20239;-58
2023/03/25 00:35:18;;;;;;;2.97;1.27;;;9.60;99.90;;;;;;5096430;28;20347;-58
2023/03/25 00:37:46;;;;;;;7.57;1.70;;;9.60;99.90;;;;;;5098489;28;20224;-59
2023/03/25 00:40:13;;;;;;;4.27;1.00;;;9.70;99.90;;;;;;5100770;28;20242;-59
2023/03/25 00:42:43;;;;;;;5.13;1.10;;;9.60;99.90;;;;;;5100780;28;20644;-60
2023/03/25 00:45:11;;;;;;;3.27;0.93;;;9.70;99.90;;;;;;5099776;28;20252;-59
2023/03/25 00:47:38;;;;;;;6.17;1.23;;;9.70;99.90;;;;;;5099644;28;20206;-58
2023/03/25 00:50:05;;;;;;;6.67;1.40;;;9.70;99.90;;;;;;5098463;28;20678;-58
2023/03/25 00:52:32;;;;;;;9.43;1.47;;;9.60;99.90;;;;;;5098612;28;20312;-59
2023/03/25 00:55:00;;;;;;;6.43;1.33;;;9.70;99.90;;;;;;5098871;28;20864;-58
2023/03/25 00:57:27;;;;;;;8.07;1.37;;;9.70;99.90;;;;;;5098529;28;20229;-59
2023/03/25 00:59:54;;;;;;;4.90;1.20;;;9.70;99.90;;;;;;5100247;28;20297;-59
2023/03/25 01:02:22;;;;;;;3.93;1.00;;;9.70;99.90;;;;;;5101516;28;20201;-59
2023/03/25 01:04:49;;;;;;;5.97;1.37;;;9.70;99.90;;;;;;5077746;28;20586;-58
2023/03/25 01:07:19;;;;;;;5.27;1.37;;;9.70;99.90;;;;;;5099008;28;20255;-58
2023/03/25 01:09:47;;;;;;;2.97;1.13;;;9.70;99.90;;;;;;5086340;28;20253;-59
2023/03/25 01:12:15;;;;;;;2.63;1.00;;;9.70;99.90;;;;;;5097914;27;20221;-59
2023/03/25 01:14:42;;;;;;;6.63;1.20;;;9.70;99.90;;;;;;5079864;28;20549;-59
2023/03/25 01:17:13;;;;;;;7.10;1.30;;;9.60;99.90;;;;;;5079325;28;20202;-59
2023/03/25 01:19:40;;;;;;;5.47;0.93;;;9.70;99.90;;;;;;5098123;28;20197;-58
2023/03/25 01:22:07;;;;;;;6.13;1.43;;;9.60;99.90;;;;;;5080630;28;20205;-58
2023/03/25 01:24:33;;;;;;;5.63;1.20;;;9.60;99.90;;;;;;5077652;28;20208;-59
2023/03/25 01:27:00;;;;;;;6.40;1.50;;;9.60;99.90;;;;;;5080337;28;20207;-60
2023/03/25 01:29:27;;;;;;;5.10;0.97;;;9.60;99.90;;;;;;5099875;28;20604;-62
2023/03/25 01:31:55;;;;;;;12.83;1.63;;;9.60;99.90;;;;;;5098296;28;20613;-58
2023/03/25 01:34:22;;;;;;;4.23;1.30;;;9.60;99.90;;;;;;5097081;28;20233;-59
2023/03/25 01:36:49;;;;;;;6.20;1.93;;;9.50;99.90;;;;;;5100270;28;20859;-59
2023/03/25 01:39:18;;;;;;;9.07;1.90;;;9.50;99.90;;;;;;5098830;28;20206;-59
2023/03/25 01:41:49;;;;;;;6.10;1.40;;;9.40;99.90;;;;;;5099592;28;20241;-58
2023/03/25 01:44:20;;;;;;;5.37;1.20;;;9.40;99.90;;;;;;5098160;28;20221;-58
2023/03/25 01:46:51;;;;;;;4.83;1.50;;;9.30;99.90;;;;;;5098226;28;20224;-62
2023/03/25 01:49:24;;;;;;;4.53;1.60;;;9.20;99.90;;;;;;5098525;28;20640;-60
2023/03/25 01:52:05;;;;;;;5.80;1.50;;;9.20;99.90;;;;;;5098022;28;20239;-59
2023/03/25 01:54:33;;;;;;;3.50;1.27;;;9.20;99.90;;;;;;5098051;28;20241;-59
2023/03/25 01:57:00;;;;;;;3.70;1.30;;;9.10;99.90;;;;;;5098037;28;20241;-59
2023/03/25 01:59:28;;;;;;;3.17;1.20;;;9.10;99.90;;;;;;5064809;28;20206;-59
2023/03/25 02:01:57;;;;;;;3.43;1.40;;;9.00;99.90;;;;;;5097188;28;20238;-58
2023/03/25 02:04:33;;;;;;;3.53;1.47;;;9.00;99.90;;;;;;5098429;28;20215;-65
2023/03/25 02:07:01;;;;;;;6.00;1.60;;;9.00;99.90;;;;;;5098549;28;20231;-59
2023/03/25 02:09:28;;;;;;;5.07;1.40;;;8.90;99.90;;;;;;5095946;28;20313;-58
2023/03/25 02:11:55;;;;;;;2.70;1.20;;;9.00;99.90;;;;;;5079015;28;20210;-59
2023/03/25 02:14:29;;;;;;;4.60;1.67;;;8.90;99.90;;;;;;5079446;28;20212;-59
2023/03/25 02:17:09;;;;;;;3.53;1.57;;;8.90;99.90;;;;;;5096543;28;20222;-58
2023/03/25 02:19:51;;;;;;;5.37;1.47;;;8.90;99.90;;;;;;5097705;28;20600;-59
2023/03/25 02:22:57;;;;;;;3.90;1.33;;;8.80;99.90;;;;;;5097454;28;20609;-58
2023/03/25 02:25:28;;;;;;;9.07;1.53;;;8.80;99.90;;;;;;5058063;28;20219;-60
2023/03/25 02:28:16;;;;;;;4.77;1.30;;;8.90;99.90;;;;;;5097540;28;20210;-58
2023/03/25 02:31:05;;;;;;;3.13;1.37;;;8.90;99.90;;;;;;5096898;28;20705;-58
2023/03/25 02:34:02;;;;;;;5.70;1.53;;;8.90;99.90;;;;;;5099063;28;20308;-58
2023/03/25 02:36:55;;;;;;;2.30;1.13;;;8.90;99.90;;;;;;5096628;28;20222;-58
2023/03/25 02:39:41;;;;;;;4.17;1.60;;;8.90;99.90;;;;;;5096618;28;20253;-58
2023/03/25 02:42:19;;;;;;;3.50;1.53;;;8.80;99.90;;;;;;5086017;28;20211;-58
2023/03/25 02:44:55;;;;;;;3.37;1.60;;;8.80;99.90;;;;;;5096740;28;20559;-58
2023/03/25 02:47:27;;;;;;;5.30;1.53;;;8.70;99.90;;;;;;5097494;28;20281;-58
2023/03/25 02:50:06;;;;;;;3.80;1.17;;;8.70;99.90;;;;;;5096713;28;20266;-58
2023/03/25 02:52:38;;;;;;;2.67;1.50;;;8.70;99.90;;;;;;5096179;28;20222;-58
2023/03/25 02:55:10;;;;;;;8.67;1.57;;;8.70;99.90;;;;;;5095442;28;20654;-58
2023/03/25 02:57:44;;;;;;;5.77;1.83;;;8.70;99.90;;;;;;5096377;28;20206;-58
2023/03/25 03:00:16;;;;;;;4.17;1.73;;;8.80;99.90;;;;;;5094596;28;20292;-59
2023/03/25 03:02:58;;;;;;;3.73;1.50;;;8.70;99.90;;;;;;5097556;28;20217;-58
2023/03/25 03:05:27;;;;;;;4.83;1.50;;;8.70;99.90;;;;;;5092251;28;20222;-60
2023/03/25 03:08:17;;;;;;;3.77;1.63;;;8.80;99.90;;;;;;5098079;28;20238;-60
2023/03/25 03:10:49;;;;;;;3.57;1.77;;;8.80;99.90;;;;;;5095807;28;20265;-61
2023/03/25 03:13:34;;;;;;;2.77;1.40;;;8.90;99.90;;;;;;5097362;28;20252;-60
2023/03/25 03:16:08;;;;;;;7.23;1.80;;;8.90;99.90;;;;;;5085398;28;20539;-60
2023/03/25 03:18:45;;;;;;;7.20;1.50;;;8.90;99.90;;;;;;5081251;28;20313;-58
2023/03/25 03:21:50;;;;;;;3.00;1.67;;;8.90;99.90;;;;;;5095862;28;20213;-58
2023/03/25 03:24:33;;;;;;;6.10;1.60;;;8.90;99.90;;;;;;5097043;28;20259;-58
2023/03/25 03:27:01;;;;;;;7.20;1.77;;;8.90;99.90;;;;;;5098205;28;20256;-61
2023/03/25 03:29:51;;;;;;;6.27;2.20;;;8.90;99.90;;;;;;5102397;28;20207;-65
2023/03/25 03:32:29;;;;;;;5.30;1.83;;;8.80;99.90;;;;;;5101200;28;20236;-59
2023/03/25 03:35:05;;;;;;;3.70;1.53;;;8.80;99.90;;;;;;5099171;28;20197;-58
2023/03/25 03:37:40;;;;;;;3.83;1.40;;;8.80;99.90;;;;;;5101897;28;20289;-58
2023/03/25 03:40:12;;;;;;;3.87;1.40;;;8.70;99.90;;;;;;5100926;28;20293;-61
2023/03/25 03:43:17;;;;;;;5.33;2.03;;;8.70;99.90;;;;;;5100871;28;20260;-58
2023/03/25 03:45:48;;;;;;;9.10;1.80;;;8.70;99.90;;;;;;5090982;28;20210;-58
2023/03/25 03:48:54;;;;;;;3.90;1.50;;;8.70;99.90;;;;;;5102139;28;20200;-58
2023/03/25 03:51:28;;;;;;;9.90;1.83;;;8.60;99.90;;;;;;5046598;28;20325;-59
2023/03/25 03:54:10;;;;;;;8.07;2.13;;;8.60;99.90;;;;;;5062781;28;20772;-61
2023/03/25 03:56:45;;;;;;;10.60;1.77;;;8.60;99.90;;;;;;5058901;28;20358;-59
2023/03/25 03:59:20;;;;;;;7.77;2.43;;;8.60;99.90;;;;;;5065738;28;20210;-59
2023/03/25 04:01:54;;;;;;;7.03;1.50;;;8.70;99.90;;;;;;5065103;28;20212;-58
2023/03/25 04:04:25;;;;;;;7.27;1.80;;;8.70;99.90;;;;;;5063796;28;20246;-62
2023/03/25 04:07:13;;;;;;;5.57;1.63;;;8.70;99.90;;;;;;5049484;28;20236;-60
2023/03/25 04:09:53;;;;;;;6.30;1.70;;;8.70;99.90;;;;;;5061374;28;20206;-62
2023/03/25 04:12:26;;;;;;;8.33;2.10;;;8.80;99.90;;;;;;5047092;28;20284;-58
2023/03/25 04:14:54;;;;;;;4.80;1.73;;;8.80;99.90;;;;;;5042692;28;20211;-58
2023/03/25 04:17:22;;;;;;;4.30;1.07;;;8.80;99.90;;;;;;5064392;28;20203;-58
2023/03/25 04:19:52;;;;;;;9.00;2.00;;;8.80;99.90;;;;;;5065170;28;20207;-61
2023/03/25 04:22:20;;;;;;;7.83;1.90;;;8.90;99.90;;;;;;5062415;28;20225;-61
2023/03/25 04:24:53;;;;;;;7.57;1.57;;;8.90;99.90;;;;;;5069087;28;20222;-60
2023/03/25 04:27:23;;;;;;;6.83;1.80;;;8.90;99.90;;;;;;5081409;28;20219;-60
2023/03/25 04:29:50;;;;;;;6.47;1.47;;;8.90;99.90;;;;;;5082338;28;20321;-59
2023/03/25 04:32:18;;;;;;;8.20;2.23;;;8.90;99.90;;;;;;5078738;28;20243;-58
2023/03/25 04:34:45;;;;;;;4.73;1.20;;;8.90;99.90;;;;;;5097416;28;20230;-58
2023/03/25 04:37:12;;;;;;;5.97;1.30;;;8.90;99.90;;;;;;5097699;28;20202;-58
2023/03/25 04:39:39;;;;;;;2.80;1.10;;;8.90;99.90;;;;;;5097345;28;20299;-58
2023/03/25 04:42:07;;;;;;;5.80;1.90;;;8.90;99.90;;;;;;5098087;28;20247;-58
2023/03/25 04:44:37;;;;;;;4.33;1.30;;;8.90;99.90;;;;;;5098144;28;20634;-58
2023/03/25 04:47:08;;;;;;;5.73;1.47;;;8.90;99.90;;;;;;5098410;28;20207;-58
2023/03/25 04:49:35;;;;;;;6.27;1.50;;;8.90;99.90;;;;;;5078740;28;20582;-58
2023/03/25 04:52:03;;;;;;;5.90;1.90;;;8.90;99.90;;;;;;5082873;28;20208;-58
2023/03/25 04:54:30;;;;;;;3.27;1.60;;;8.90;99.90;;;;;;5080881;28;20228;-59
2023/03/25 04:56:57;;;;;;;11.10;1.50;;;8.80;99.90;;;;;;5081947;28;20590;-60
2023/03/25 04:59:25;;;;;;;8.27;1.87;;;8.80;99.90;;;;;;5100212;28;20200;-61
2023/03/25 05:01:52;;;;;;;5.33;1.63;;;8.80;99.90;;;;;;5099218;28;20570;-60
2023/03/25 05:04:20;;;;;;;3.70;1.60;;;8.70;99.90;;;;;;5097610;28;20229;-61
2023/03/25 05:06:50;;;;;;;7.27;1.40;;;8.60;99.90;;;;;;5078276;28;20716;-58
2023/03/25 05:09:20;;;;;;;2.73;1.60;;;8.60;99.90;;;;;;5098920;28;20214;-58
2023/03/25 05:11:48;;;;;;;5.80;1.77;;;8.50;99.90;;;;;;5098084;28;20660;-58
2023/03/25 05:14:17;;;;;;;5.73;1.60;;;8.50;99.90;;;;;;5098785;28;20305;-58
2023/03/25 05:16:46;;;;;;;5.40;1.60;;;8.50;99.90;;;;;;5098803;28;20205;-62
2023/03/25 05:19:14;;;;;;;4.17;1.50;;;8.50;99.90;;;;;;5081749;28;20313;-61
2023/03/25 05:21:41;;;;;;;3.20;1.77;;;8.50;99.90;;;;;;5065569;28;20235;-61
2023/03/25 05:24:10;;;;;;;5.57;1.73;;;8.40;99.90;;;;;;5099189;28;20258;-61
2023/03/25 05:26:39;;;;;;;3.83;1.40;;;8.40;99.90;;;;;;5100026;28;20195;-61
2023/03/25 05:29:09;;;;;;;7.07;1.50;;;8.50;99.90;;;;;;5098408;28;20205;-60
2023/03/25 05:31:36;;;;;;;4.70;1.90;;;8.40;99.90;;;;;;5098517;28;20210;-60
2023/03/25 05:34:05;;;;;;;4.47;1.83;;;8.40;99.90;;;;;;5098422;28;20690;-60
2023/03/25 05:36:32;;;;;;;5.17;2.07;;;8.40;99.90;;;;;;5099236;28;20217;-60
2023/03/25 05:38:59;;;;;;;2.70;1.43;;;8.40;99.90;;;;;;5101150;28;20228;-61
2023/03/25 05:41:37;;;;;;;6.13;2.67;;;8.40;99.90;;;;;;5077750;28;20197;-61
2023/03/25 05:44:08;;;;;;;6.10;2.60;;;8.40;99.90;;;;;;5099660;28;20527;-60
2023/03/25 05:46:35;;;;;;;5.13;1.77;;;8.40;99.90;;;;;;5100196;28;21070;-58
2023/03/25 05:49:02;;;;;;;4.03;1.70;;;8.50;99.90;;;;;;5100494;28;20206;-58
2023/03/25 05:51:36;;;;;;;3.33;1.80;;;8.50;99.90;;;;;;5099493;28;20266;-61
2023/03/25 05:54:09;;;;;;;5.60;1.70;;;8.50;99.90;;;;;;5083435;28;20215;-61
2023/03/25 05:56:37;;;;;;;6.43;1.70;;;8.50;99.90;;;;;;5098350;28;20203;-60
2023/03/25 05:59:04;;;;;;;4.63;1.90;;;8.50;99.90;;;;;;5100055;28;20338;-60
2023/03/25 06:01:32;;;;;;;4.67;1.70;;;8.50;99.90;;;;;;5097927;28;20200;-61
2023/03/25 06:04:01;;;;;;;6.60;2.70;;;8.50;99.90;;;;;;5080852;28;20213;-58
2023/03/25 06:06:30;;;;;;;7.33;2.00;;;8.50;99.90;;;;;;5098676;28;20216;-60
2023/03/25 06:08:58;;;;;;;5.57;1.70;;;8.50;99.90;;;;;;5099530;28;20247;-58
2023/03/25 06:11:25;;;;;;;5.03;1.70;;;8.50;99.90;;;;;;5095974;28;20215;-60
2023/03/25 06:13:51;;;;;;;6.80;2.10;;;8.50;99.90;;;;;;5074692;28;20228;-60
2023/03/25 06:16:26;;;;;;;10.40;2.23;;;8.50;99.90;;;;;;5097291;28;20579;-61
2023/03/25 06:18:58;;;;;;;5.40;1.50;;;8.50;99.90;;;;;;5073971;28;20227;-61
2023/03/25 06:21:32;;;;;;;6.57;2.03;;;8.50;99.90;;;;;;5080274;28;20195;-64
2023/03/25 06:24:00;;;;;;;4.10;1.70;;;8.60;99.90;;;;;;5094081;28;20233;-60
2023/03/25 06:26:27;;;;;;;7.03;2.43;;;8.60;99.90;;;;;;5093243;28;20227;-60
2023/03/25 06:28:54;;;;;;;10.23;1.90;;;8.60;99.90;;;;;;5100254;28;20201;-60
2023/03/25 06:31:25;;;;;;;8.97;2.17;;;8.60;99.90;;;;;;5098674;28;20266;-60
2023/03/25 06:33:54;;;;;;;7.57;2.03;;;8.70;99.90;;;;;;5098866;28;20503;-61
2023/03/25 06:36:24;;;;;;;6.70;2.13;;;8.70;99.90;;;;;;5096472;28;20256;-60
2023/03/25 06:38:52;;;;;;;4.63;2.27;;;8.80;99.90;;;;;;5097120;28;20197;-60
2023/03/25 06:41:20;;;;;;;8.83;1.87;;;8.80;99.90;;;;;;5096026;28;20201;-56
2023/03/25 06:43:47;;;;;;;8.93;3.00;;;8.90;99.90;;;;;;5063409;28;20670;-55
2023/03/25 06:46:15;;;;;;;11.27;2.30;;;8.90;99.90;;;;;;5097017;28;20734;-56
2023/03/25 06:48:42;;;;;;;5.73;1.63;;;9.00;99.90;;;;;;5099137;28;20240;-56
2023/03/25 06:51:09;;;;;;;6.30;2.17;;;8.90;99.90;;;;;;5096523;28;20240;-59
2023/03/25 06:53:36;;;;;;;13.27;2.57;;;9.00;99.90;;;;;;5077906;28;20748;-55
2023/03/25 06:56:03;;;;;;;15.37;2.23;;;9.00;99.90;;;;;;5076461;28;20199;-55
2023/03/25 06:58:33;;;;;;;5.17;2.23;;;9.00;99.90;;;;;;5095776;28;20243;-56
2023/03/25 07:01:05;;;;;;;6.40;1.80;;;9.00;99.90;;;;;;5070279;28;20668;-56
2023/03/25 07:03:35;;;;;;;5.33;1.47;;;9.10;99.90;;;;;;5095384;28;20236;-56
2023/03/25 07:06:02;;;;;;;7.53;2.00;;;9.10;99.90;;;;;;5092321;28;20216;-56
2023/03/25 07:08:29;;;;;;;7.13;1.70;;;9.00;99.90;;;;;;5097093;28;20661;-56
2023/03/25 07:11:17;;;;;;;7.23;1.87;;;9.00;99.90;;;;;;5096200;28;20619;-56
2023/03/25 07:13:44;;;;;;;8.13;2.60;;;9.10;99.90;;;;;;5095938;28;20207;-60
2023/03/25 07:16:11;;;;;;;7.43;1.70;;;9.10;99.90;;;;;;5094353;28;20202;-56
2023/03/25 07:18:40;;;;;;;5.97;1.70;;;9.10;99.90;;;;;;5078492;28;20230;-55
2023/03/25 07:21:07;;;;;;;13.07;2.10;;;9.20;99.90;;;;;;5078197;28;20204;-56
2023/03/25 07:23:34;;;;;;;6.53;2.00;;;9.20;99.90;;;;;;5079699;28;20238;-57
2023/03/25 07:26:01;;;;;;;8.67;2.00;;;9.20;99.90;;;;;;5095498;28;20263;-55
2023/03/25 07:28:27;;;;;;;6.60;1.80;;;9.20;99.90;;;;;;5096287;28;20274;-56
2023/03/25 07:30:54;;;;;;;5.30;1.50;;;9.10;99.90;;;;;;5095562;28;20940;-55
2023/03/25 07:33:21;;;;;;;8.10;1.77;;;9.00;99.90;;;;;;5096997;28;20224;-56
2023/03/25 07:35:48;;;;;;;11.60;2.33;;;9.10;99.90;;;;;;5096999;28;20204;-55
2023/03/25 07:38:15;;;;;;;12.23;2.27;;;9.00;99.90;;;;;;5098683;28;20233;-65
2023/03/25 07:40:42;;;;;;;9.07;1.83;;;9.00;99.90;;;;;;5062872;28;20289;-55
2023/03/25 07:43:15;;;;;;;8.80;2.77;;;9.00;99.90;;;;;;5094926;28;20201;-56
2023/03/25 07:45:42;;;;;;;6.67;2.03;;;8.90;99.90;;;;;;5096008;28;20214;-56
2023/03/25 07:48:13;;;;;;;9.83;1.83;;;8.90;99.90;;;;;;5080208;28;20233;-59
2023/03/25 07:50:41;;;;;;;15.83;2.73;;;8.90;99.90;;;;;;5080000;28;20223;-59
2023/03/25 07:53:08;;;;;;;12.13;2.97;;;9.00;99.90;;;;;;5095679;28;20233;-56
2023/03/25 07:55:36;;;;;;;13.67;2.17;;;9.10;99.90;;;;;;5094643;28;20296;-56
2023/03/25 07:58:04;;;;;;;12.97;2.47;;;9.20;99.90;;;;;;5096613;28;20211;-56
2023/03/25 08:00:30;;;;;;;9.90;2.10;;;9.20;99.90;;;;;;4713455;28;9999935;-55
2023/03/25 08:02:57;;;;;;;13.57;2.23;;;9.20;99.90;;;;;;5071735;28;20572;-56
2023/03/25 08:05:24;;;;;;;8.30;2.00;;;9.30;99.90;;;;;;5092719;28;20217;-55
2023/03/25 08:07:51;;;;;;;16.00;2.20;;;9.30;99.90;;;;;;5070358;28;20403;-55
2023/03/25 08:10:19;;;;;;;8.10;1.80;;;9.30;99.90;;;;;;5089782;28;20219;-56
2023/03/25 08:12:45;;;;;;;12.23;2.47;;;9.40;99.90;;;;;;5089109;27;21425;-58
2023/03/25 08:15:13;;;;;;;6.67;2.10;;;9.40;99.90;;;;;;5092192;28;20598;-56
2023/03/25 08:17:40;;;;;;;9.60;2.00;;;9.50;99.90;;;;;;5097104;28;20220;-57
2023/03/25 08:20:07;;;;;;;7.63;1.17;;;9.40;99.90;;;;;;5077973;28;20192;-56
2023/03/25 08:22:35;;;;;;;9.60;2.87;;;9.40;99.90;;;;;;5098483;28;20575;-56
2023/03/25 08:25:02;;;;;;;6.10;1.67;;;9.40;99.90;;;;;;5094571;27;20609;-57
2023/03/25 08:27:29;;;;;;;9.83;2.30;;;9.50;99.90;;;;;;5074004;28;20205;-56
2023/03/25 08:29:58;;;;;;;5.27;1.70;;;9.50;99.90;;;;;;5076339;28;20317;-56
2023/03/25 08:32:27;;;;;;;12.87;2.00;;;9.40;99.90;;;;;;5093112;27;20209;-57
2023/03/25 08:34:54;;;;;;;10.30;1.90;;;9.50;99.90;;;;;;5092922;28;20221;-56
2023/03/25 08:37:22;;;;;;;5.97;1.93;;;9.60;99.90;;;;;;5090921;27;20224;-56
2023/03/25 08:39:49;;;;;;;11.00;2.80;;;9.60;99.90;;;;;;5089145;28;20205;-59
2023/03/25 08:42:16;;;;;;;10.13;2.67;;;9.70;99.90;;;;;;5074649;28;20579;-56
2023/03/25 08:44:43;;;;;;;13.17;2.73;;;9.70;99.90;;;;;;5075607;28;20317;-56
2023/03/25 08:47:10;;;;;;;9.07;2.50;;;9.70;99.90;;;;;;5089280;28;20214;-56
2023/03/25 08:49:37;;;;;;;10.83;2.53;;;9.40;99.90;;;;;;5092489;28;20256;-57
2023/03/25 08:52:07;;;;;;;10.13;2.20;;;9.30;99.90;;;;;;5092809;28;20305;-56
2023/03/25 08:54:34;;;;;;;11.27;3.10;;;9.40;99.90;;;;;;5091458;28;20297;-56
2023/03/25 08:57:01;;;;;;;7.10;2.10;;;9.30;99.90;;;;;;5079151;28;20202;-55
2023/03/25 08:59:28;;;;;;;11.63;2.47;;;9.20;99.90;;;;;;5075368;28;20296;-59
2023/03/25 09:01:55;;;;;;;12.17;2.40;;;9.20;99.90;;;;;;5094536;28;20216;-56
2023/03/25 09:04:25;;;;;;;10.60;2.40;;;9.30;99.90;;;;;;5056657;28;20221;-56
2023/03/25 09:06:52;;;;;;;10.03;3.00;;;9.30;99.90;;;;;;5071162;28;20229;-56
2023/03/25 09:09:38;;;;;;;8.13;3.17;;;9.40;99.90;;;;;;5074037;28;20223;-56
2023/03/25 09:12:06;;;;;;;12.30;2.90;;;9.40;99.90;;;;;;5091063;28;20207;-55
2023/03/25 09:14:33;;;;;;;10.17;2.57;;;9.40;99.90;;;;;;5073860;28;20267;-56
2023/03/25 09:17:00;;;;;;;14.30;2.80;;;9.40;99.90;;;;;;5090689;28;20225;-56
2023/03/25 09:19:27;;;;;;;12.43;2.87;;;9.50;99.90;;;;;;5091258;28;20579;-55
2023/03/25 09:21:54;;;;;;;9.53;2.83;;;9.60;99.90;;;;;;5094397;28;20251;-55
2023/03/25 09:24:21;;;;;;;11.17;3.60;;;9.60;99.90;;;;;;5087766;28;20201;-57
2023/03/25 09:26:48;;;;;;;9.00;2.60;;;9.80;99.90;;;;;;5093108;28;20235;-55
2023/03/25 09:29:15;;;;;;;10.00;3.00;;;9.90;99.90;;;;;;5092341;28;20199;-55
2023/03/25 09:31:42;;;;;;;9.50;2.40;;;10.00;99.90;;;;;;5077338;28;20627;-55
2023/03/25 09:34:10;;;;;;;11.80;2.67;;;10.00;99.90;;;;;;5094069;28;20286;-56
2023/03/25 09:36:39;;;;;;;13.00;3.17;;;10.00;99.90;;;;;;5069492;28;20275;-55
2023/03/25 09:39:07;;;;;;;12.00;3.10;;;10.00;99.90;;;;;;5093892;28;20254;-56
2023/03/25 09:41:40;;;;;;;7.60;2.60;;;9.90;99.90;;;;;;5073460;28;20369;-56
2023/03/25 09:44:29;;;;;;;13.87;2.93;;;9.90;99.90;;;;;;5069763;28;20755;-56
2023/03/25 09:47:01;;;;;;;16.10;3.43;;;9.90;99.90;;;;;;5070189;28;20211;-57
2023/03/25 09:49:45;;;;;;;12.73;2.50;;;9.90;99.90;;;;;;5090173;28;20195;-56
2023/03/25 09:52:19;;;;;;;13.20;3.50;;;9.90;99.90;;;;;;5091806;28;20642;-55
2023/03/25 09:54:51;;;;;;;10.63;2.77;;;9.90;99.90;;;;;;5088221;28;20223;-56
2023/03/25 09:57:26;;;;;;;11.53;2.63;;;9.90;99.90;;;;;;5074987;28;20291;-55
2023/03/25 09:59:55;;;;;;;15.93;3.77;;;9.90;99.90;;;;;;5090985;28;20747;-56
2023/03/25 10:02:40;;;;;;;10.50;2.70;;;10.00;99.90;;;;;;5085905;28;20195;-56
2023/03/25 10:05:26;;;;;;;13.10;3.10;;;10.10;99.90;;;;;;5087247;28;20322;-55
2023/03/25 10:08:12;;;;;;;10.47;2.77;;;10.20;99.90;;;;;;5087868;27;20959;-56
2023/03/25 10:11:00;;;;;;;9.83;2.47;;;10.30;99.90;;;;;;5089769;28;20229;-57
2023/03/25 10:13:43;;;;;;;18.40;3.57;;;10.20;99.90;;;;;;5078709;28;20207;-56
2023/03/25 10:16:56;;;;;;;20.30;3.33;;;10.10;99.90;;;;;;5094713;28;20554;-56
2023/03/25 10:19:43;;;;;;;12.57;3.00;;;10.30;99.90;;;;;;5064289;28;20335;-56
2023/03/25 10:22:23;;;;;;;9.73;2.20;;;10.30;99.90;;;;;;5087299;28;20338;-56
2023/03/25 10:24:52;;;;;;;11.27;2.80;;;10.40;99.90;;;;;;5088635;28;20196;-55
2023/03/25 10:27:32;;;;;;;14.10;2.53;;;10.50;99.90;;;;;;5094922;28;20607;-56
2023/03/25 10:29:59;;;;;;;13.97;2.80;;;10.60;99.90;;;;;;5093750;28;20377;-55
2023/03/25 10:32:50;;;;;;;12.87;2.97;;;11.00;99.90;;;;;;5096493;28;20199;-55
2023/03/25 10:35:20;;;;;;;14.97;3.03;;;11.00;99.90;;;;;;5094762;28;20221;-56
2023/03/25 10:37:50;;;;;;;14.17;2.63;;;11.00;99.90;;;;;;5096082;28;20197;-61
2023/03/25 10:40:32;;;;;;;13.43;2.37;;;11.20;99.90;;;;;;5094101;28;20303;-55
2023/03/25 10:43:15;;;;;;;6.13;2.47;;;11.10;99.90;;;;;;5090279;28;20244;-59
2023/03/25 10:45:44;;;;;;;13.20;2.80;;;11.20;99.90;;;;;;5092000;28;20212;-55
2023/03/25 10:48:20;;;;;;;15.53;3.17;;;11.20;99.90;;;;;;5091236;28;20743;-61
2023/03/25 10:50:49;;;;;;;8.87;2.77;;;11.00;99.90;;;;;;5095103;28;20605;-56
2023/03/25 10:53:26;;;;;;;9.47;2.13;;;11.20;99.90;;;;;;5095999;28;20669;-55
2023/03/25 10:56:03;;;;;;;17.00;3.37;;;11.30;99.90;;;;;;5091240;28;20217;-59
2023/03/25 10:58:32;;;;;;;17.43;3.00;;;11.20;99.90;;;;;;5088864;28;20643;-56
2023/03/25 11:01:04;;;;;;;12.83;3.30;;;11.00;99.90;;;;;;5094424;28;20913;-57
2023/03/25 11:03:33;;;;;;;10.33;2.33;;;11.00;99.90;;;;;;5075707;28;20540;-55
2023/03/25 11:06:01;;;;;;;9.63;1.83;;;10.90;99.90;;;;;;5077208;28;20199;-56
2023/03/25 11:08:28;;;;;;;11.53;3.20;;;10.90;99.90;;;;;;5061468;28;20206;-55
2023/03/25 11:10:56;;;;;;;10.27;2.40;;;11.00;99.90;;;;;;5090688;28;20279;-56
2023/03/25 11:13:28;;;;;;;8.00;1.93;;;11.10;99.90;;;;;;5091631;28;20204;-55
2023/03/25 11:16:01;;;;;;;9.03;2.13;;;11.20;99.90;;;;;;5073767;28;20518;-55
2023/03/25 11:18:33;;;;;;;8.47;1.80;;;11.30;99.90;;;;;;5095081;28;20244;-56
2023/03/25 11:21:09;;;;;;;9.07;2.80;;;11.30;99.90;;;;;;5095813;28;20235;-56
2023/03/25 11:23:45;;;;;;;10.43;1.97;;;11.30;99.90;;;;;;5095627;28;20211;-57
2023/03/25 11:26:12;;;;;;;10.17;1.93;;;11.30;99.90;;;;;;5096946;28;20213;-58
2023/03/25 11:28:44;;;;;;;6.97;1.60;;;11.40;99.90;;;;;;5093872;28;20291;-57
2023/03/25 11:31:20;;;;;;;8.27;1.80;;;11.50;99.90;;;;;;5094640;28;20231;-56
2023/03/25 11:34:11;;;;;;;5.67;1.20;;;11.40;99.90;;;;;;5095230;28;20607;-57
2023/03/25 11:36:40;;;;;;;5.33;1.37;;;11.50;99.90;;;;;;5095880;28;20204;-56
2023/03/25 11:39:17;;;;;;;10.33;1.70;;;11.80;99.90;;;;;;5094214;28;20237;-56
2023/03/25 11:41:45;;;;;;;5.80;1.20;;;12.30;99.90;;;;;;5094147;28;20825;-56
2023/03/25 11:44:41;;;;;;;6.60;1.43;;;12.50;99.90;;;;;;5090691;28;20306;-56
2023/03/25 11:47:10;;;;;;;7.97;1.83;;;12.30;99.90;;;;;;5077869;28;20315;-56
2023/03/25 11:49:40;;;;;;;6.87;2.17;;;12.00;99.90;;;;;;5096336;28;20518;-57
2023/03/25 11:52:44;;;;;;;7.13;1.87;;;11.90;99.90;;;;;;5099454;28;20224;-59
2023/03/25 11:55:15;;;;;;;8.27;1.40;;;12.10;99.90;;;;;;5097534;28;20255;-56
2023/03/25 11:57:45;;;;;;;7.70;1.80;;;12.20;99.90;;;;;;5101344;28;20243;-59
2023/03/25 12:00:24;;;;;;;6.90;1.67;;;12.70;99.90;;;;;;5098922;28;20218;-57
2023/03/25 12:03:10;;;;;;;7.70;1.30;;;12.80;99.90;;;;;;5098443;28;20284;-57
2023/03/25 12:05:38;;;;;;;6.27;1.50;;;12.80;99.90;;;;;;5097735;28;20235;-56
2023/03/25 12:08:14;;;;;;;4.73;1.13;;;13.00;99.90;;;;;;5099287;28;20200;-57
2023/03/25 12:10:56;;;;;;;3.30;1.27;;;13.50;99.90;;;;;;5094212;28;20205;-59
2023/03/25 12:13:31;;;;;;;12.67;2.40;;;13.10;99.90;;;;;;5099087;28;20291;-55
2023/03/25 12:16:39;;;;;;;9.10;1.77;;;13.00;99.90;;;;;;5095902;28;20262;-56
2023/03/25 12:19:21;;;;;;;9.90;1.60;;;12.70;99.90;;;;;;5095177;28;20234;-55
2023/03/25 12:22:11;;;;;;;7.80;2.50;;;12.50;99.90;;;;;;5096879;28;20657;-55
2023/03/25 12:25:08;;;;;;;6.90;1.37;;;12.50;99.90;;;;;;5088559;28;20210;-55
2023/03/25 12:27:53;;;;;;;4.10;1.43;;;12.60;99.90;;;;;;5089311;28;20313;-56
2023/03/25 12:30:29;;;;;;;9.00;1.77;;;12.40;99.90;;;;;;5092548;28;20694;-55
2023/03/25 12:33:15;;;;;;;8.00;1.43;;;12.40;99.90;;;;;;5095839;28;20736;-55
2023/03/25 12:36:00;;;;;;;7.77;1.70;;;12.30;99.90;;;;;;5089973;28;20239;-55
2023/03/25 12:39:19;;;;;;;7.40;1.70;;;12.30;99.90;;;;;;5091089;28;20559;-55
2023/03/25 12:42:20;;;;;;;6.10;1.83;;;12.30;99.90;;;;;;5058008;28;20198;-58
2023/03/25 12:45:18;;;;;;;10.80;2.00;;;12.40;99.90;;;;;;5090385;28;20816;-57
2023/03/25 12:47:53;;;;;;;8.23;1.93;;;12.30;99.90;;;;;;5092919;28;20213;-55
2023/03/25 12:50:36;;;;;;;7.23;1.30;;;12.20;99.90;;;;;;5089995;28;20248;-58
2023/03/25 12:53:45;;;;;;;4.17;1.60;;;12.20;99.90;;;;;;5091697;28;20216;-58
2023/03/25 12:56:32;;;;;;;12.23;2.07;;;12.50;99.90;;;;;;5014610;28;20830;-60
2023/03/25 12:59:17;;;;;;;8.77;1.87;;;12.30;99.90;;;;;;4990627;28;20218;-56
2023/03/25 13:02:02;;;;;;;6.93;1.43;;;12.30;99.90;;;;;;5017637;28;20207;-56
2023/03/25 13:04:37;;;;;;;6.00;1.30;;;12.70;99.90;;;;;;5013442;28;20213;-56
2023/03/25 13:07:26;;;;;;;6.50;1.53;;;12.80;99.90;;;;;;5016767;28;20713;-60
2023/03/25 13:09:56;;;;;;;8.07;2.10;;;12.80;99.90;;;;;;5006651;28;20197;-60
2023/03/25 13:12:50;;;;;;;6.13;1.40;;;12.80;99.90;;;;;;5024816;28;20211;-61
2023/03/25 13:15:37;;;;;;;9.37;1.37;;;12.90;99.90;;;;;;5022903;28;20317;-60
2023/03/25 13:18:26;;;;;;;9.87;1.80;;;12.90;99.90;;;;;;5022824;28;20309;-62
2023/03/25 13:21:05;;;;;;;7.77;1.70;;;12.70;99.90;;;;;;5021665;28;20213;-60
2023/03/25 13:23:41;;;;;;;8.17;1.47;;;12.60;99.90;;;;;;5018491;28;20201;-60